Time;durP1;ratioP1;P1;durP2;ratioP2;P2;SDS_P1;SDS_P2;PMS_P1;PMS_P2;Temp;Humidity;BMP_temperature;BMP_pressure;BME280_temperature;BME280_humidity;BME280_pressure;Samples;Min_cycle;Max_cycle;Signal;HPM_P1;HPM_P2
2022/06/11 00:01:13;;;;;;;;;;;15.00;99.90;;;;;;5063790;28;19921;-68
2022/06/11 00:03:41;;;;;;;;;;;15.00;99.90;;;;;;5063575;28;20445;-68
2022/06/11 00:06:07;;;;;;;;;;;14.90;99.90;;;;;;5062721;28;20228;-68
2022/06/11 00:08:34;;;;;;;;;;;14.80;99.90;;;;;;5063257;28;20094;-67
2022/06/11 00:11:01;;;;;;;;;;;14.70;99.90;;;;;;5063697;28;19955;-67
2022/06/11 00:13:28;;;;;;;;;;;14.60;99.90;;;;;;5063472;28;20254;-68
2022/06/11 00:15:55;;;;;;;;;;;14.50;99.90;;;;;;5062920;28;19921;-69
2022/06/11 00:18:24;;;;;;;;;;;14.40;99.90;;;;;;5063263;28;20235;-67
2022/06/11 00:20:51;;;;;;;;;;;14.40;99.90;;;;;;5063205;28;19947;-67
2022/06/11 00:23:18;;;;;;;;;;;14.40;99.90;;;;;;5063309;28;19952;-68
2022/06/11 00:25:50;;;;;;;;;;;14.40;99.90;;;;;;5060393;28;20120;-68
2022/06/11 00:28:17;;;;;;;;;;;14.40;99.90;;;;;;5063126;28;20212;-68
2022/06/11 00:30:44;;;;;;;;;;;14.30;99.90;;;;;;5063265;28;19941;-68
2022/06/11 00:33:10;;;;;;;;;;;14.30;99.90;;;;;;5063507;28;19925;-68
2022/06/11 00:35:40;;;;;;;;;;;14.20;99.90;;;;;;5062588;28;19928;-68
2022/06/11 00:38:07;;;;;;;;;;;14.10;99.90;;;;;;5063430;28;19928;-69
2022/06/11 00:40:35;;;;;;;;;;;14.10;99.90;;;;;;5063181;28;19928;-68
2022/06/11 00:43:02;;;;;;;;;;;14.00;99.90;;;;;;5063245;28;19920;-68
2022/06/11 00:45:30;;;;;;;;;;;13.90;99.90;;;;;;5062653;28;19996;-69
2022/06/11 00:47:59;;;;;;;;;;;13.90;99.90;;;;;;5063010;28;19952;-68
2022/06/11 00:50:28;;;;;;;;;;;13.80;99.90;;;;;;5063066;28;19989;-68
2022/06/11 00:52:57;;;;;;;;;;;13.80;99.90;;;;;;5066257;28;19955;-68
2022/06/11 00:55:27;;;;;;;;;;;13.80;99.90;;;;;;5066556;28;19959;-67
2022/06/11 00:57:56;;;;;;;;;;;13.80;99.90;;;;;;5066803;28;19959;-68
2022/06/11 01:00:24;;;;;;;;;;;13.80;99.90;;;;;;5066894;28;19979;-67
2022/06/11 01:02:51;;;;;;;;;;;13.80;99.90;;;;;;5067229;28;20159;-68
2022/06/11 01:05:20;;;;;;;;;;;13.70;99.90;;;;;;5065945;28;19921;-68
2022/06/11 01:08:02;;;;;;;;;;;13.70;99.90;;;;;;5066507;28;19920;-68
2022/06/11 01:10:44;;;;;;;;;;;13.70;99.90;;;;;;5107937;22;20230;-89
2022/06/11 01:13:15;;;;;;;;;;;13.70;99.90;;;;;;5055792;28;20119;-89
2022/06/11 01:15:43;;;;;;;;;;;13.70;99.90;;;;;;5088801;28;19921;-89
2022/06/11 01:18:19;;;;;;;;;;;13.60;99.90;;;;;;5082582;28;20000;-88
2022/06/11 01:20:50;;;;;;;;;;;13.60;99.90;;;;;;5089075;28;19924;-89
2022/06/11 01:23:34;;;;;;;;;;;13.60;99.90;;;;;;5088665;28;19950;-90
2022/06/11 01:26:07;;;;;;;;;;;13.50;99.90;;;;;;5084611;28;20225;-89
2022/06/11 01:28:51;;;;;;;;;;;13.50;99.90;;;;;;5068385;28;19967;-90
2022/06/11 01:31:32;;;;;;;;;;;13.50;99.90;;;;;;5080318;28;20124;-91
2022/06/11 01:34:04;;;;;;;;;;;13.40;99.90;;;;;;5088350;28;19981;-89
2022/06/11 01:36:33;;;;;;;;;;;13.40;99.90;;;;;;5088194;28;19944;-89
2022/06/11 01:39:02;;;;;;;;;;;13.40;99.90;;;;;;5088350;28;19920;-89
2022/06/11 01:41:31;;;;;;;;;;;13.40;99.90;;;;;;5088419;28;19951;-90
2022/06/11 01:44:00;;;;;;;;;;;13.30;99.90;;;;;;5088389;28;20211;-90
2022/06/11 01:46:28;;;;;;;;;;;13.40;99.90;;;;;;5087762;28;20124;-89
2022/06/11 01:48:59;;;;;;;;;;;13.30;99.90;;;;;;5087679;28;19921;-91
2022/06/11 01:51:31;;;;;;;;;;;13.30;99.90;;;;;;5088227;28;20158;-91
2022/06/11 01:54:16;;;;;;;;;;;13.20;99.90;;;;;;5068141;28;19921;-89
2022/06/11 01:56:57;;;;;;;;;;;13.10;99.90;;;;;;5057555;28;19921;-89
2022/06/11 01:59:33;;;;;;;;;;;13.10;99.90;;;;;;5067250;28;22276;-91
2022/06/11 02:02:06;;;;;;;;;;;13.10;99.90;;;;;;5068078;28;19921;-89
2022/06/11 02:04:39;;;;;;;;;;;13.00;99.90;;;;;;5068848;28;19921;-90
2022/06/11 02:07:11;;;;;;;;;;;13.00;99.90;;;;;;5076293;28;19920;-90
2022/06/11 02:09:42;;;;;;;;;;;12.90;99.90;;;;;;5091529;28;20252;-91
2022/06/11 02:12:12;;;;;;;;;;;12.90;99.90;;;;;;5092060;28;19969;-90
2022/06/11 02:14:44;;;;;;;;;;;12.90;99.90;;;;;;5091543;28;19921;-91
2022/06/11 02:17:12;;;;;;;;;;;12.90;99.90;;;;;;5091357;28;19921;-90
2022/06/11 02:19:43;;;;;;;;;;;12.80;99.90;;;;;;5091425;28;19952;-90
2022/06/11 02:22:11;;;;;;;;;;;12.80;99.90;;;;;;5091188;28;19920;-91
2022/06/11 02:24:41;;;;;;;;;;;12.80;99.90;;;;;;5091146;28;19921;-91
2022/06/11 02:27:18;;;;;;;;;;;12.70;99.90;;;;;;5088303;28;20131;-88
2022/06/11 02:29:45;;;;;;;;;;;12.70;99.90;;;;;;5087893;28;19920;-90
2022/06/11 02:32:14;;;;;;;;;;;12.70;99.90;;;;;;5090618;28;19920;-90
2022/06/11 02:34:44;;;;;;;;;;;12.70;99.90;;;;;;5089936;28;20112;-91
2022/06/11 02:37:16;;;;;;;;;;;12.70;99.90;;;;;;5090044;28;19944;-89
2022/06/11 02:39:43;;;;;;;;;;;12.60;99.90;;;;;;5090339;28;20235;-89
2022/06/11 02:42:13;;;;;;;;;;;12.60;99.90;;;;;;5093909;28;19920;-88
2022/06/11 02:44:40;;;;;;;;;;;12.60;99.90;;;;;;5087990;28;19943;-90
2022/06/11 02:47:07;;;;;;;;;;;12.50;99.90;;;;;;5087489;28;19979;-90
2022/06/11 02:49:36;;;;;;;;;;;12.50;99.90;;;;;;5088331;28;20216;-91
2022/06/11 02:52:06;;;;;;;;;;;12.50;99.90;;;;;;5088130;28;19920;-89
2022/06/11 02:54:33;;;;;;;;;;;12.50;99.90;;;;;;5088283;28;19920;-90
2022/06/11 02:57:01;;;;;;;;;;;12.50;99.90;;;;;;5088178;28;20299;-90
2022/06/11 02:59:29;;;;;;;;;;;12.50;99.90;;;;;;5087230;28;20311;-90
2022/06/11 03:01:56;;;;;;;;;;;12.40;99.90;;;;;;5088554;28;19944;-89
2022/06/11 03:04:24;;;;;;;;;;;12.40;99.90;;;;;;5096734;28;19927;-87
2022/06/11 03:06:51;;;;;;;;;;;12.30;99.90;;;;;;5084781;28;19944;-88
2022/06/11 03:09:20;;;;;;;;;;;12.30;99.90;;;;;;5084923;28;19928;-88
2022/06/11 03:11:47;;;;;;;;;;;12.30;99.90;;;;;;5084917;28;20235;-89
2022/06/11 03:14:14;;;;;;;;;;;12.30;99.90;;;;;;5084336;28;19921;-89
2022/06/11 03:16:41;;;;;;;;;;;12.30;99.90;;;;;;5084354;28;19984;-89
2022/06/11 03:19:08;;;;;;;;;;;12.30;99.90;;;;;;5084849;28;19947;-88
2022/06/11 03:21:36;;;;;;;;;;;12.40;99.90;;;;;;5084858;28;19920;-88
2022/06/11 03:24:02;;;;;;;;;;;12.30;99.90;;;;;;5085153;28;19928;-88
2022/06/11 03:26:31;;;;;;;;;;;12.30;99.90;;;;;;5085319;28;19921;-89
2022/06/11 03:28:57;;;;;;;;;;;12.20;99.90;;;;;;5085040;28;20164;-89
2022/06/11 03:31:24;;;;;;;;;;;12.20;99.90;;;;;;5084490;28;19973;-89
2022/06/11 03:33:51;;;;;;;;;;;12.10;99.90;;;;;;5085196;28;19920;-89
2022/06/11 03:36:19;;;;;;;;;;;12.10;99.90;;;;;;5084932;28;19943;-90
2022/06/11 03:38:46;;;;;;;;;;;12.10;99.90;;;;;;5085314;28;19980;-89
2022/06/11 03:41:13;;;;;;;;;;;12.10;99.90;;;;;;5086248;28;19921;-89
2022/06/11 03:43:41;;;;;;;;;;;12.10;99.90;;;;;;5086122;28;19944;-89
2022/06/11 03:46:08;;;;;;;;;;;12.00;99.90;;;;;;5086020;28;20339;-89
2022/06/11 03:48:36;;;;;;;;;;;12.00;99.90;;;;;;5085823;28;20119;-88
2022/06/11 03:51:04;;;;;;;;;;;12.00;99.90;;;;;;5086282;28;19920;-90
2022/06/11 03:53:31;;;;;;;;;;;12.10;99.90;;;;;;5086316;28;19928;-91
2022/06/11 03:55:58;;;;;;;;;;;12.10;99.90;;;;;;5085944;28;20250;-89
2022/06/11 03:58:25;;;;;;;;;;;12.00;99.90;;;;;;5086099;28;19959;-89
2022/06/11 04:03:39;;;;;;;;;;;12.10;99.90;;;;;;5085919;28;19927;-89
2022/06/11 04:06:06;;;;;;;;;;;12.10;99.90;;;;;;5086183;28;19943;-90
2022/06/11 04:08:33;;;;;;;;;;;12.10;99.90;;;;;;5085986;28;19920;-91
2022/06/11 04:11:00;;;;;;;;;;;12.10;99.90;;;;;;5086100;28;19979;-89
2022/06/11 04:13:28;;;;;;;;;;;12.20;99.90;;;;;;5086059;28;19920;-88
2022/06/11 04:15:57;;;;;;;;;;;12.20;99.90;;;;;;5085441;28;20227;-90
2022/06/11 04:18:27;;;;;;;;;;;12.30;99.90;;;;;;5085080;28;19927;-88
2022/06/11 04:20:54;;;;;;;;;;;12.30;99.90;;;;;;5065560;28;19963;-90
2022/06/11 04:23:24;;;;;;;;;;;12.40;99.90;;;;;;5065956;28;19921;-88
2022/06/11 04:25:51;;;;;;;;;;;12.50;99.90;;;;;;5065711;28;19921;-89
2022/06/11 04:28:18;;;;;;;;;;;12.50;99.90;;;;;;5069420;28;20100;-90
2022/06/11 04:30:44;;;;;;;;;;;12.60;99.90;;;;;;5069265;28;19927;-90
2022/06/11 04:33:13;;;;;;;;;;;12.70;99.90;;;;;;5070077;28;19921;-91
2022/06/11 04:35:39;;;;;;;;;;;12.80;99.90;;;;;;5089534;28;20131;-88
2022/06/11 04:38:06;;;;;;;;;;;12.90;99.90;;;;;;5089252;28;19928;-90
2022/06/11 04:40:33;;;;;;;;;;;13.00;99.90;;;;;;5089328;28;19948;-90
2022/06/11 04:43:00;;;;;;;;;;;13.00;99.90;;;;;;5089086;28;19927;-88
2022/06/11 04:45:27;;;;;;;;;;;13.10;99.90;;;;;;5089070;28;19915;-89
2022/06/11 04:47:53;;;;;;;;;;;13.20;99.90;;;;;;5088469;28;19921;-90
2022/06/11 04:50:21;;;;;;;;;;;13.30;99.90;;;;;;5089748;28;19992;-91
2022/06/11 04:52:48;;;;;;;;;;;13.40;99.90;;;;;;5088920;28;19966;-93
2022/06/11 04:55:16;;;;;;;;;;;13.50;99.90;;;;;;5098484;28;19924;-93
2022/06/11 04:57:44;;;;;;;;;;;13.60;99.90;;;;;;5096125;28;19951;-91
2022/06/11 05:00:11;;;;;;;;;;;13.70;99.90;;;;;;5090901;28;19958;-91
2022/06/11 05:02:38;;;;;;;;;;;13.80;99.90;;;;;;5085598;28;19943;-91
2022/06/11 05:05:06;;;;;;;;;;;13.90;99.90;;;;;;5080272;28;19927;-90
2022/06/11 05:07:35;;;;;;;;;;;13.90;99.90;;;;;;5083224;28;19928;-91
2022/06/11 05:10:02;;;;;;;;;;;14.00;99.90;;;;;;5077682;28;20231;-89
2022/06/11 05:12:28;;;;;;;;;;;14.10;99.90;;;;;;5067612;28;19921;-88
2022/06/11 05:14:55;;;;;;;;;;;14.10;99.90;;;;;;5078276;28;19920;-91
2022/06/11 05:17:22;;;;;;;;;;;14.30;99.90;;;;;;5086860;28;19959;-91
2022/06/11 05:19:49;;;;;;;;;;;14.40;99.90;;;;;;5090302;28;19944;-91
2022/06/11 05:22:15;;;;;;;;;;;14.50;99.90;;;;;;5087835;28;19948;-90
2022/06/11 05:24:44;;;;;;;;;;;14.60;99.90;;;;;;5088198;28;19936;-92
2022/06/11 05:27:13;;;;;;;;;;;14.70;99.90;;;;;;5087189;28;19948;-90
2022/06/11 05:29:47;;;;;;;;;;;14.80;99.90;;;;;;5076887;28;19921;-89
2022/06/11 05:32:15;;;;;;;;;;;15.00;99.90;;;;;;5079474;28;20146;-88
2022/06/11 05:34:41;;;;;;;;;;;15.10;99.90;;;;;;5070313;28;19948;-89
2022/06/11 05:37:08;;;;;;;;;;;15.20;99.90;;;;;;5074587;28;19928;-93
2022/06/11 05:40:08;;;;;;;;;;;15.40;99.90;;;;;;5093182;28;19921;-91
2022/06/11 05:42:41;;;;;;;;;;;15.50;99.90;;;;;;5095413;22;19951;-69
2022/06/11 05:45:08;;;;;;;;;;;15.60;99.90;;;;;;5085709;28;19987;-69
2022/06/11 05:47:35;;;;;;;;;;;15.80;99.90;;;;;;5085935;28;19987;-69
2022/06/11 05:50:03;;;;;;;;;;;15.90;99.90;;;;;;5085318;28;19974;-69
2022/06/11 05:52:31;;;;;;;;;;;16.00;99.90;;;;;;5085281;28;19921;-69
2022/06/11 05:54:58;;;;;;;;;;;16.10;99.90;;;;;;5085398;28;19929;-69
2022/06/11 05:57:25;;;;;;;;;;;16.20;99.90;;;;;;5085139;28;19987;-69
2022/06/11 05:59:56;;;;;;;;;;;16.40;99.90;;;;;;5085502;28;20007;-69
2022/06/11 06:02:23;;;;;;;;;;;16.60;99.90;;;;;;5085225;28;19956;-69
2022/06/11 06:04:50;;;;;;;;;;;16.70;99.90;;;;;;5085086;28;19975;-68
2022/06/11 06:07:17;;;;;;;;;;;16.90;99.90;;;;;;5085026;28;19971;-69
2022/06/11 06:09:43;;;;;;;;;;;17.00;99.90;;;;;;5085300;28;19959;-69
2022/06/11 06:12:10;;;;;;;;;;;17.20;99.90;;;;;;5085311;28;19992;-69
2022/06/11 06:14:37;;;;;;;;;;;17.30;99.90;;;;;;5084936;28;19948;-69
2022/06/11 06:17:05;;;;;;;;;;;17.40;99.90;;;;;;5084965;28;20208;-70
2022/06/11 06:19:32;;;;;;;;;;;17.40;99.90;;;;;;5084675;28;19987;-69
2022/06/11 06:21:58;;;;;;;;;;;17.60;99.90;;;;;;5084718;28;19921;-69
2022/06/11 06:24:25;;;;;;;;;;;17.50;99.90;;;;;;5084934;28;19951;-69
2022/06/11 06:26:52;;;;;;;;;;;17.60;99.90;;;;;;5084658;28;20263;-69
2022/06/11 06:29:18;;;;;;;;;;;17.70;99.90;;;;;;5085336;28;19920;-69
2022/06/11 06:31:45;;;;;;;;;;;17.70;99.90;;;;;;5085325;28;20136;-67
2022/06/11 06:34:13;;;;;;;;;;;17.90;99.90;;;;;;5084391;28;19943;-67
2022/06/11 06:36:40;;;;;;;;;;;18.00;99.90;;;;;;5072093;28;19956;-67
2022/06/11 06:39:06;;;;;;;;;;;18.20;99.90;;;;;;5075229;28;19955;-67
2022/06/11 06:41:33;;;;;;;;;;;18.30;99.90;;;;;;5064926;28;19956;-67
2022/06/11 06:44:00;;;;;;;;;;;18.40;99.90;;;;;;5065106;28;19928;-67
2022/06/11 06:46:27;;;;;;;;;;;18.60;99.90;;;;;;5068265;28;19926;-67
2022/06/11 06:48:54;;;;;;;;;;;18.60;99.90;;;;;;5064098;28;19920;-67
2022/06/11 06:51:22;;;;;;;;;;;18.70;99.90;;;;;;5064596;28;19928;-67
2022/06/11 06:53:49;;;;;;;;;;;18.80;99.90;;;;;;5064847;28;19921;-67
2022/06/11 06:56:16;;;;;;;;;;;18.80;99.90;;;;;;5064410;28;19921;-67
2022/06/11 06:58:42;;;;;;;;;;;18.80;99.90;;;;;;5064690;28;19952;-67
2022/06/11 07:01:09;;;;;;;;;;;18.90;99.90;;;;;;5064747;28;19921;-67
2022/06/11 07:03:36;;;;;;;;;;;19.00;99.90;;;;;;5081917;28;19967;-68
2022/06/11 07:06:03;;;;;;;;;;;19.10;99.90;;;;;;5084469;28;19928;-69
2022/06/11 07:08:31;;;;;;;;;;;19.10;99.90;;;;;;5084304;28;20122;-69
2022/06/11 07:10:58;;;;;;;;;;;19.10;99.90;;;;;;5084474;28;19952;-68
2022/06/11 07:13:24;;;;;;;;;;;19.20;99.90;;;;;;5084308;28;19920;-69
2022/06/11 07:15:52;;;;;;;;;;;19.30;99.90;;;;;;5084180;28;19927;-69
2022/06/11 07:18:20;;;;;;;;;;;19.30;99.90;;;;;;5083958;28;19940;-69
2022/06/11 07:20:48;;;;;;;;;;;19.30;99.90;;;;;;5084092;28;19954;-69
2022/06/11 07:23:19;;;;;;;;;;;19.40;99.90;;;;;;5083020;28;19956;-69
2022/06/11 07:25:48;;;;;;;;;;;19.40;99.90;;;;;;5083485;28;19986;-69
2022/06/11 07:28:16;;;;;;;;;;;19.40;99.90;;;;;;5083485;28;20196;-69
2022/06/11 07:30:44;;;;;;;;;;;19.50;99.90;;;;;;5083145;28;20377;-69
2022/06/11 07:33:12;;;;;;;;;;;19.50;99.90;;;;;;5081479;28;19990;-69
2022/06/11 07:35:39;;;;;;;;;;;19.60;99.90;;;;;;5082356;28;20062;-69
2022/06/11 07:38:07;;;;;;;;;;;19.70;99.90;;;;;;5083272;28;19920;-69
2022/06/11 07:40:33;;;;;;;;;;;19.80;99.90;;;;;;5066426;28;19959;-68
2022/06/11 07:43:01;;;;;;;;;;;19.90;99.90;;;;;;5078041;28;19921;-69
2022/06/11 07:45:28;;;;;;;;;;;20.00;99.90;;;;;;5069265;28;19921;-69
2022/06/11 07:47:55;;;;;;;;;;;20.00;99.90;;;;;;5073698;28;19928;-68
2022/06/11 07:50:23;;;;;;;;;;;20.00;99.90;;;;;;5078922;28;19920;-66
2022/06/11 07:52:50;;;;;;;;;;;20.20;99.90;;;;;;5083313;28;20265;-65
2022/06/11 07:55:17;;;;;;;;;;;20.20;99.90;;;;;;5076346;28;19928;-66
2022/06/11 07:57:43;;;;;;;;;;;20.40;99.90;;;;;;5064000;28;19927;-66
2022/06/11 08:00:13;;;;;;;;;;;20.50;99.90;;;;;;5075162;28;19921;-66
2022/06/11 08:02:40;;;;;;;;;;;20.50;99.90;;;;;;5074663;28;19956;-65
2022/06/11 08:05:07;;;;;;;;;;;20.60;99.90;;;;;;5081550;28;19928;-65
2022/06/11 08:07:33;;;;;;;;;;;20.70;99.90;;;;;;5082519;28;19984;-65
2022/06/11 08:10:00;;;;;;;;;;;20.80;99.90;;;;;;5079526;28;19927;-65
2022/06/11 08:12:27;;;;;;;;;;;20.90;99.90;;;;;;5071399;28;19960;-66
2022/06/11 08:14:56;;;;;;;;;;;21.00;99.90;;;;;;5070896;28;20208;-65
2022/06/11 08:17:25;;;;;;;;;;;21.10;99.90;;;;;;5062747;28;19921;-66
2022/06/11 08:19:51;;;;;;;;;;;21.10;99.90;;;;;;5063381;28;20159;-66
2022/06/11 08:22:18;;;;;;;;;;;21.20;99.90;;;;;;5063227;28;19956;-65
2022/06/11 08:24:45;;;;;;;;;;;21.30;99.90;;;;;;5073936;28;19935;-66
2022/06/11 08:27:12;;;;;;;;;;;21.30;99.90;;;;;;5070733;28;19921;-63
2022/06/11 08:29:38;;;;;;;;;;;21.30;99.90;;;;;;5076536;28;19943;-63
2022/06/11 08:32:05;;;;;;;;;;;21.20;99.90;;;;;;5082458;28;19928;-63
2022/06/11 08:34:35;;;;;;;;;;;21.20;99.90;;;;;;5083162;28;19920;-63
2022/06/11 08:37:01;;;;;;;;;;;21.30;99.90;;;;;;5081965;28;19920;-63
2022/06/11 08:39:28;;;;;;;;;;;21.40;99.90;;;;;;5069187;28;19959;-64
2022/06/11 08:41:56;;;;;;;;;;;21.50;99.90;;;;;;5062602;28;19963;-64
2022/06/11 08:44:25;;;;;;;;;;;21.60;99.90;;;;;;5072453;28;19920;-64
2022/06/11 08:46:52;;;;;;;;;;;21.70;99.90;;;;;;5082028;28;19925;-65
2022/06/11 08:49:28;;;;;;;;;;;21.80;99.90;;;;;;5075319;28;19935;-65
2022/06/11 08:51:58;;;;;;;;;;;22.00;99.90;;;;;;5083049;28;19924;-64
2022/06/11 08:54:26;;;;;;;;;;;22.00;99.90;;;;;;5082926;28;20015;-66
2022/06/11 08:56:55;;;;;;;;;;;22.10;99.90;;;;;;5082148;28;19948;-63
2022/06/11 08:59:29;;;;;;;;;;;22.20;99.90;;;;;;5081796;28;19927;-65
2022/06/11 09:02:01;;;;;;;;;;;22.30;99.90;;;;;;5081509;28;19920;-66
2022/06/11 09:04:57;;;;;;;;;;;22.30;99.90;;;;;;5082271;28;19988;-64
2022/06/11 09:07:35;;;;;;;;;;;22.40;99.90;;;;;;5062090;28;19920;-65
2022/06/11 09:10:11;;;;;;;;;;;22.40;99.90;;;;;;5062922;28;19928;-65
2022/06/11 09:12:45;;;;;;;;;;;22.30;99.90;;;;;;5063240;28;19921;-65
2022/06/11 09:15:17;;;;;;;;;;;22.20;99.90;;;;;;5084404;28;19999;-65
2022/06/11 09:17:58;;;;;;;;;;;22.10;99.90;;;;;;5086438;28;20000;-65
2022/06/11 09:20:30;;;;;;;;;;;22.20;99.90;;;;;;5086076;28;19955;-65
2022/06/11 09:23:13;;;;;;;;;;;22.30;99.90;;;;;;5086571;28;19920;-64
2022/06/11 09:25:45;;;;;;;;;;;22.30;99.90;;;;;;5085382;28;19932;-65
2022/06/11 09:28:18;;;;;;;;;;;22.40;99.90;;;;;;5086121;28;19947;-64
2022/06/11 09:30:47;;;;;;;;;;;22.60;99.90;;;;;;5085984;28;19920;-66
2022/06/11 09:33:23;;;;;;;;;;;22.90;99.90;;;;;;5085830;28;19921;-63
2022/06/11 09:35:53;;;;;;;;;;;23.00;99.90;;;;;;5085133;28;20222;-65
2022/06/11 09:38:26;;;;;;;;;;;23.20;99.90;;;;;;5085540;28;19927;-64
2022/06/11 09:40:57;;;;;;;;;;;23.20;99.90;;;;;;5080785;28;20238;-65
2022/06/11 09:43:29;;;;;;;;;;;23.10;99.90;;;;;;5081628;28;19987;-64
2022/06/11 09:45:59;;;;;;;;;;;23.10;99.90;;;;;;5076663;28;19960;-65
2022/06/11 09:48:32;;;;;;;;;;;23.10;99.90;;;;;;5078846;28;19920;-64
2022/06/11 09:51:03;;;;;;;;;;;23.10;99.90;;;;;;5065507;28;19952;-64
2022/06/11 09:53:36;;;;;;;;;;;23.20;99.90;;;;;;5083847;28;19947;-64
2022/06/11 09:56:09;;;;;;;;;;;23.20;99.90;;;;;;5085082;28;19928;-64
2022/06/11 09:58:41;;;;;;;;;;;23.20;99.90;;;;;;5085344;28;19952;-64
2022/06/11 10:01:11;;;;;;;;;;;23.10;99.90;;;;;;5085542;28;20108;-64
2022/06/11 10:03:41;;;;;;;;;;;23.10;99.90;;;;;;5085501;28;20113;-64
2022/06/11 10:06:09;;;;;;;;;;;23.00;99.90;;;;;;5084583;28;20169;-65
2022/06/11 10:08:40;;;;;;;;;;;23.00;99.90;;;;;;5085147;28;19987;-63
2022/06/11 10:11:11;;;;;;;;;;;23.20;99.90;;;;;;5085469;28;20120;-66
2022/06/11 10:13:41;;;;;;;;;;;23.40;99.90;;;;;;5085415;28;19920;-64
2022/06/11 10:16:13;;;;;;;;;;;23.60;99.90;;;;;;5084389;28;19983;-65
2022/06/11 10:18:40;;;;;;;;;;;23.90;99.90;;;;;;5084908;28;19952;-64
2022/06/11 10:21:11;;;;;;;;;;;24.10;99.90;;;;;;5085297;28;20093;-64
2022/06/11 10:23:42;;;;;;;;;;;24.40;99.90;;;;;;5084657;28;19960;-64
2022/06/11 10:26:11;;;;;;;;;;;24.50;99.90;;;;;;5083881;28;19987;-64
2022/06/11 10:28:39;;;;;;;;;;;24.50;99.90;;;;;;5085031;28;19952;-64
2022/06/11 10:31:08;;;;;;;;;;;24.30;99.90;;;;;;5085169;28;20143;-63
2022/06/11 10:33:37;;;;;;;;;;;24.20;99.90;;;;;;5085086;28;19978;-63
2022/06/11 10:36:07;;;;;;;;;;;24.10;99.90;;;;;;5084138;28;19952;-63
2022/06/11 10:38:41;;;;;;;;;;;24.00;99.90;;;;;;5084547;28;19966;-64
2022/06/11 10:41:10;;;;;;;;;;;24.20;99.90;;;;;;5084535;28;19928;-64
2022/06/11 10:43:41;;;;;;;;;;;24.40;99.90;;;;;;5084609;28;19952;-64
2022/06/11 10:46:10;;;;;;;;;;;24.40;99.90;;;;;;5084011;28;19955;-64
2022/06/11 10:48:37;;;;;;;;;;;24.40;99.90;;;;;;5080877;28;19952;-64
2022/06/11 10:51:07;;;;;;;;;;;24.50;99.90;;;;;;5080665;28;20258;-64
2022/06/11 10:53:36;;;;;;;;;;;24.60;99.90;;;;;;5084539;28;19920;-63
2022/06/11 10:56:05;;;;;;;;;;;24.80;99.90;;;;;;5083899;28;19920;-64
2022/06/11 10:58:36;;;;;;;;;;;24.80;99.90;;;;;;5079189;28;19956;-64
2022/06/11 11:01:06;;;;;;;;;;;24.80;99.90;;;;;;5063163;28;20357;-64
2022/06/11 11:03:38;;;;;;;;;;;24.80;99.90;;;;;;5072031;28;19921;-65
2022/06/11 11:06:05;;;;;;;;;;;24.90;99.90;;;;;;5083404;28;19926;-64
2022/06/11 11:08:33;;;;;;;;;;;25.10;99.90;;;;;;5083961;28;19927;-64
2022/06/11 11:11:00;;;;;;;;;;;25.20;99.90;;;;;;5084312;28;19927;-64
2022/06/11 11:13:31;;;;;;;;;;;25.30;99.90;;;;;;5084279;28;19962;-64
2022/06/11 11:16:01;;;;;;;;;;;25.30;99.90;;;;;;5080130;28;20255;-64
2022/06/11 11:18:32;;;;;;;;;;;25.30;99.90;;;;;;5076587;28;19936;-64
2022/06/11 11:20:59;;;;;;;;;;;25.30;99.90;;;;;;5063881;28;19920;-65
2022/06/11 11:23:31;;;;;;;;;;;25.20;99.90;;;;;;5081859;28;19959;-64
2022/06/11 11:26:00;;;;;;;;;;;25.00;99.90;;;;;;5074663;28;20208;-64
2022/06/11 11:28:29;;;;;;;;;;;25.20;99.90;;;;;;5083823;28;19921;-64
2022/06/11 11:30:58;;;;;;;;;;;25.40;99.90;;;;;;5084081;28;19970;-64
2022/06/11 11:33:28;;;;;;;;;;;25.70;99.90;;;;;;5083962;28;20173;-64
2022/06/11 11:36:13;;;;;;;;;;;25.80;99.90;;;;;;5080660;28;19960;-64
2022/06/11 11:38:40;;;;;;;;;;;26.00;99.90;;;;;;5090803;28;19951;-64
2022/06/11 11:41:07;;;;;;;;;;;26.00;99.90;;;;;;5087766;23;19921;-65
2022/06/11 11:43:35;;;;;;;;;;;26.00;99.90;;;;;;5063219;28;19984;-65
2022/06/11 11:46:04;;;;;;;;;;;25.90;99.90;;;;;;5067315;28;19921;-65
2022/06/11 11:48:32;;;;;;;;;;;26.00;99.90;;;;;;5063347;28;19984;-65
2022/06/11 11:51:01;;;;;;;;;;;26.20;99.90;;;;;;5069458;28;19948;-65
2022/06/11 11:53:29;;;;;;;;;;;26.30;99.90;;;;;;5064444;28;19955;-64
2022/06/11 11:55:57;;;;;;;;;;;26.20;99.90;;;;;;5070183;28;19967;-64
2022/06/11 11:58:28;;;;;;;;;;;26.30;99.90;;;;;;5070729;28;19956;-64
2022/06/11 12:00:56;;;;;;;;;;;26.20;99.90;;;;;;5070051;28;20223;-65
2022/06/11 12:03:24;;;;;;;;;;;26.30;99.90;;;;;;5063924;28;19920;-65
2022/06/11 12:05:59;;;;;;;;;;;26.60;99.90;;;;;;5059720;28;19936;-65
2022/06/11 12:08:27;;;;;;;;;;;27.00;99.90;;;;;;5061692;28;19952;-66
2022/06/11 12:10:57;;;;;;;;;;;27.40;99.90;;;;;;5062310;28;19929;-67
2022/06/11 12:13:26;;;;;;;;;;;27.80;99.90;;;;;;5062128;28;19975;-67
2022/06/11 12:15:54;;;;;;;;;;;27.90;98.90;;;;;;5059050;28;19955;-67
2022/06/11 12:18:23;;;;;;;;;;;28.00;96.70;;;;;;5063444;28;19956;-65
2022/06/11 12:20:53;;;;;;;;;;;28.00;97.20;;;;;;5043186;28;20250;-65
2022/06/11 12:23:25;;;;;;;;;;;28.10;98.20;;;;;;5042995;28;19928;-65
2022/06/11 12:25:55;;;;;;;;;;;28.30;96.30;;;;;;5042815;28;19956;-65
2022/06/11 12:28:23;;;;;;;;;;;28.30;96.10;;;;;;5061538;28;19928;-64
2022/06/11 12:30:50;;;;;;;;;;;28.10;96.10;;;;;;5061378;28;20235;-65
2022/06/11 12:33:17;;;;;;;;;;;28.00;96.40;;;;;;5061696;28;19983;-65
2022/06/11 12:35:48;;;;;;;;;;;27.80;97.20;;;;;;5061350;28;19928;-66
2022/06/11 12:38:16;;;;;;;;;;;27.50;96.50;;;;;;5063183;28;20112;-67
2022/06/11 12:40:49;;;;;;;;;;;27.50;97.70;;;;;;5062822;28;20262;-65
2022/06/11 12:43:24;;;;;;;;;;;27.40;97.80;;;;;;5062669;28;19971;-64
2022/06/11 12:45:54;;;;;;;;;;;27.30;97.70;;;;;;5062460;28;19920;-65
2022/06/11 12:48:32;;;;;;;;;;;27.10;97.50;;;;;;5045096;28;20157;-65
2022/06/11 12:51:03;;;;;;;;;;;27.20;98.60;;;;;;5047022;28;19921;-65
2022/06/11 12:53:41;;;;;;;;;;;27.50;97.10;;;;;;5048809;28;20147;-65
2022/06/11 12:56:15;;;;;;;;;;;27.80;97.10;;;;;;5063747;28;19933;-65
2022/06/11 12:58:58;;;;;;;;;;;27.90;98.40;;;;;;5065507;28;19921;-65
2022/06/11 13:01:28;;;;;;;;;;;28.00;97.30;;;;;;5066384;28;19952;-65
2022/06/11 13:04:05;;;;;;;;;;;28.20;98.60;;;;;;5065678;28;19927;-65
2022/06/11 13:06:40;;;;;;;;;;;28.50;96.90;;;;;;5066264;28;20167;-65
2022/06/11 13:09:11;;;;;;;;;;;28.80;95.60;;;;;;5065853;28;19982;-65
2022/06/11 13:11:42;;;;;;;;;;;29.00;96.20;;;;;;5066313;28;19921;-65
2022/06/11 13:14:17;;;;;;;;;;;29.20;95.40;;;;;;5066115;28;19921;-65
2022/06/11 13:16:47;;;;;;;;;;;29.50;96.20;;;;;;5065611;28;20212;-64
2022/06/11 13:19:18;;;;;;;;;;;29.80;95.60;;;;;;5065933;28;19955;-65
2022/06/11 13:21:50;;;;;;;;;;;29.70;95.10;;;;;;5066497;28;19925;-65
2022/06/11 13:24:22;;;;;;;;;;;29.60;93.40;;;;;;5065543;28;20254;-65
2022/06/11 13:26:55;;;;;;;;;;;29.50;94.10;;;;;;5065383;28;20271;-65
2022/06/11 13:29:34;;;;;;;;;;;29.50;94.90;;;;;;5065662;28;19987;-64
2022/06/11 13:32:04;;;;;;;;;;;29.70;93.70;;;;;;5066110;28;19955;-65
2022/06/11 13:34:35;;;;;;;;;;;29.80;93.90;;;;;;5064787;28;19992;-65
2022/06/11 13:37:07;;;;;;;;;;;29.50;92.40;;;;;;5065241;28;19921;-64
2022/06/11 13:39:41;;;;;;;;;;;29.10;93.60;;;;;;5065607;28;20227;-64
2022/06/11 13:42:14;;;;;;;;;;;28.80;92.70;;;;;;5065575;28;19992;-66
2022/06/11 13:44:48;;;;;;;;;;;28.30;93.10;;;;;;5065232;28;19921;-65
2022/06/11 13:47:25;;;;;;;;;;;28.00;93.80;;;;;;5063799;28;20258;-64
2022/06/11 13:49:56;;;;;;;;;;;27.80;94.60;;;;;;5063732;28;19921;-64
2022/06/11 13:55:13;;;;;;;;;;;27.50;94.50;;;;;;5065244;28;19917;-65
2022/06/11 13:57:59;;;;;;;;;;;27.40;95.50;;;;;;5065313;28;19921;-65
2022/06/11 14:00:40;;;;;;;;;;;27.30;95.30;;;;;;5065475;28;19928;-65
2022/06/11 14:03:14;;;;;;;;;;;27.20;95.40;;;;;;5064887;28;20238;-65
2022/06/11 14:05:42;;;;;;;;;;;27.10;95.50;;;;;;5064692;28;19921;-65
2022/06/11 14:08:09;;;;;;;;;;;27.00;96.20;;;;;;5065203;28;19956;-65
2022/06/11 14:10:37;;;;;;;;;;;27.00;95.70;;;;;;5064863;28;19920;-64
2022/06/11 14:13:06;;;;;;;;;;;26.90;95.90;;;;;;5064458;28;19943;-65
2022/06/11 14:15:34;;;;;;;;;;;26.80;95.00;;;;;;5064543;28;19995;-64
2022/06/11 14:18:27;;;;;;;;;;;26.70;95.40;;;;;;5065101;28;20254;-65
2022/06/11 14:20:55;;;;;;;;;;;26.60;96.20;;;;;;5065776;28;19920;-65
2022/06/11 14:23:40;;;;;;;;;;;26.60;96.20;;;;;;5065246;28;19991;-64
2022/06/11 14:26:30;;;;;;;;;;;26.50;96.30;;;;;;5064582;28;19992;-65
2022/06/11 14:29:01;;;;;;;;;;;26.40;96.30;;;;;;5064995;28;19933;-65
2022/06/11 14:31:47;;;;;;;;;;;26.40;97.10;;;;;;5064661;28;20122;-65
2022/06/11 14:34:19;;;;;;;;;;;26.30;96.20;;;;;;5065082;28;19963;-65
2022/06/11 14:37:01;;;;;;;;;;;26.40;96.10;;;;;;5063950;28;19956;-65